sensor_id;sensor_type;location;lat;lon;timestamp;pressure;altitude;pressure_sealevel;temperature
65569;BMP180;52211;50.154;8.682;2023-03-01T00:01:59;101191.00;;;6.10
65569;BMP180;52211;50.154;8.682;2023-03-01T00:04:28;101190.00;;;6.10
65569;BMP180;52211;50.154;8.682;2023-03-01T00:07:00;101190.00;;;6.10
65569;BMP180;52211;50.154;8.682;2023-03-01T00:09:26;101187.00;;;6.00
65569;BMP180;52211;50.154;8.682;2023-03-01T00:12:00;101183.00;;;6.00
65569;BMP180;52211;50.154;8.682;2023-03-01T00:14:27;101193.00;;;6.00
65569;BMP180;52211;50.154;8.682;2023-03-01T00:16:56;101192.00;;;6.00
65569;BMP180;52211;50.154;8.682;2023-03-01T00:19:25;101185.00;;;6.00
65569;BMP180;52211;50.154;8.682;2023-03-01T00:21:59;101185.00;;;6.00
65569;BMP180;52211;50.154;8.682;2023-03-01T00:24:26;101189.00;;;6.00
65569;BMP180;52211;50.154;8.682;2023-03-01T00:26:56;101186.00;;;6.00
65569;BMP180;52211;50.154;8.682;2023-03-01T00:29:27;101188.00;;;6.00
65569;BMP180;52211;50.154;8.682;2023-03-01T00:31:57;101177.00;;;6.00
65569;BMP180;52211;50.154;8.682;2023-03-01T00:34:27;101174.00;;;6.00
65569;BMP180;52211;50.154;8.682;2023-03-01T00:36:56;101176.00;;;6.00
65569;BMP180;52211;50.154;8.682;2023-03-01T00:39:32;101170.00;;;6.00
65569;BMP180;52211;50.154;8.682;2023-03-01T00:42:01;101164.00;;;6.00
65569;BMP180;52211;50.154;8.682;2023-03-01T00:44:30;101162.00;;;6.00
65569;BMP180;52211;50.154;8.682;2023-03-01T00:46:57;101170.00;;;6.00
65569;BMP180;52211;50.154;8.682;2023-03-01T00:49:24;101164.00;;;6.00
65569;BMP180;52211;50.154;8.682;2023-03-01T00:51:58;101164.00;;;6.00
65569;BMP180;52211;50.154;8.682;2023-03-01T00:54:25;101157.00;;;6.00
65569;BMP180;52211;50.154;8.682;2023-03-01T00:56:54;101158.00;;;6.00
65569;BMP180;52211;50.154;8.682;2023-03-01T00:59:21;101155.00;;;6.00
65569;BMP180;52211;50.154;8.682;2023-03-01T01:01:47;101159.00;;;6.00
65569;BMP180;52211;50.154;8.682;2023-03-01T01:04:15;101154.00;;;6.00
65569;BMP180;52211;50.154;8.682;2023-03-01T01:06:45;101151.00;;;6.00
65569;BMP180;52211;50.154;8.682;2023-03-01T01:09:17;101151.00;;;6.00
65569;BMP180;52211;50.154;8.682;2023-03-01T01:11:54;101144.00;;;6.00
65569;BMP180;52211;50.154;8.682;2023-03-01T01:14:23;101133.00;;;6.00
65569;BMP180;52211;50.154;8.682;2023-03-01T01:16:53;101138.00;;;6.00
65569;BMP180;52211;50.154;8.682;2023-03-01T01:19:21;101130.00;;;6.00
65569;BMP180;52211;50.154;8.682;2023-03-01T01:21:52;101125.00;;;6.00
65569;BMP180;52211;50.154;8.682;2023-03-01T01:24:22;101124.00;;;6.00
65569;BMP180;52211;50.154;8.682;2023-03-01T01:26:52;101125.00;;;6.00
65569;BMP180;52211;50.154;8.682;2023-03-01T01:29:19;101120.00;;;6.00
65569;BMP180;52211;50.154;8.682;2023-03-01T01:31:50;101112.00;;;6.00
65569;BMP180;52211;50.154;8.682;2023-03-01T01:34:20;101112.00;;;6.00
65569;BMP180;52211;50.154;8.682;2023-03-01T01:36:51;101100.00;;;5.90
65569;BMP180;52211;50.154;8.682;2023-03-01T01:39:22;101094.00;;;5.90
65569;BMP180;52211;50.154;8.682;2023-03-01T01:41:49;101104.00;;;5.90
65569;BMP180;52211;50.154;8.682;2023-03-01T01:44:26;101099.00;;;5.90
65569;BMP180;52211;50.154;8.682;2023-03-01T01:50:01;101102.00;;;5.90
65569;BMP180;52211;50.154;8.682;2023-03-01T01:52:37;101103.00;;;6.00
65569;BMP180;52211;50.154;8.682;2023-03-01T01:55:26;101106.00;;;6.00
65569;BMP180;52211;50.154;8.682;2023-03-01T01:58:02;101108.00;;;6.00
65569;BMP180;52211;50.154;8.682;2023-03-01T02:00:35;101106.00;;;6.00
65569;BMP180;52211;50.154;8.682;2023-03-01T02:03:20;101104.00;;;6.00
65569;BMP180;52211;50.154;8.682;2023-03-01T02:06:26;101111.00;;;6.00
65569;BMP180;52211;50.154;8.682;2023-03-01T02:08:49;101113.00;;;6.00
65569;BMP180;52211;50.154;8.682;2023-03-01T02:11:21;101111.00;;;6.00
65569;BMP180;52211;50.154;8.682;2023-03-01T02:13:52;101118.00;;;6.00
65569;BMP180;52211;50.154;8.682;2023-03-01T02:16:21;101117.00;;;6.00
65569;BMP180;52211;50.154;8.682;2023-03-01T02:18:49;101109.00;;;6.00
65569;BMP180;52211;50.154;8.682;2023-03-01T02:23:54;101102.00;;;6.00
65569;BMP180;52211;50.154;8.682;2023-03-01T02:26:42;101094.00;;;6.00
65569;BMP180;52211;50.154;8.682;2023-03-01T02:29:12;101094.00;;;6.00
65569;BMP180;52211;50.154;8.682;2023-03-01T02:31:41;101083.00;;;6.00
65569;BMP180;52211;50.154;8.682;2023-03-01T02:34:24;101083.00;;;6.00
65569;BMP180;52211;50.154;8.682;2023-03-01T02:37:02;101084.00;;;6.00
65569;BMP180;52211;50.154;8.682;2023-03-01T02:39:39;101081.00;;;6.00
65569;BMP180;52211;50.154;8.682;2023-03-01T02:42:20;101073.00;;;6.00
65569;BMP180;52211;50.154;8.682;2023-03-01T02:44:57;101072.00;;;6.00
65569;BMP180;52211;50.154;8.682;2023-03-01T02:47:24;101069.00;;;6.00
65569;BMP180;52211;50.154;8.682;2023-03-01T02:49:54;101061.00;;;6.00
65569;BMP180;52211;50.154;8.682;2023-03-01T02:52:43;101056.00;;;6.00
65569;BMP180;52211;50.154;8.682;2023-03-01T02:55:20;101059.00;;;6.00
65569;BMP180;52211;50.154;8.682;2023-03-01T02:57:51;101047.00;;;6.00
65569;BMP180;52211;50.154;8.682;2023-03-01T03:00:31;101050.00;;;6.00
65569;BMP180;52211;50.154;8.682;2023-03-01T03:03:03;101061.00;;;6.10
65569;BMP180;52211;50.154;8.682;2023-03-01T03:05:38;101057.00;;;6.10
65569;BMP180;52211;50.154;8.682;2023-03-01T03:08:07;101055.00;;;6.10
65569;BMP180;52211;50.154;8.682;2023-03-01T03:10:40;101050.00;;;6.00
65569;BMP180;52211;50.154;8.682;2023-03-01T03:13:14;101039.00;;;6.00
65569;BMP180;52211;50.154;8.682;2023-03-01T03:15:45;101031.00;;;6.00
65569;BMP180;52211;50.154;8.682;2023-03-01T03:18:16;101028.00;;;6.00
65569;BMP180;52211;50.154;8.682;2023-03-01T03:20:46;101037.00;;;6.10
65569;BMP180;52211;50.154;8.682;2023-03-01T03:23:15;101031.00;;;6.00
65569;BMP180;52211;50.154;8.682;2023-03-01T03:25:44;101028.00;;;6.10
65569;BMP180;52211;50.154;8.682;2023-03-01T03:28:18;101027.00;;;6.10
65569;BMP180;52211;50.154;8.682;2023-03-01T03:30:46;101029.00;;;6.10
65569;BMP180;52211;50.154;8.682;2023-03-01T03:33:19;101029.00;;;6.10
65569;BMP180;52211;50.154;8.682;2023-03-01T03:35:49;101014.00;;;6.00
65569;BMP180;52211;50.154;8.682;2023-03-01T03:38:19;101008.00;;;6.00
65569;BMP180;52211;50.154;8.682;2023-03-01T03:41:00;101009.00;;;6.00
65569;BMP180;52211;50.154;8.682;2023-03-01T03:43:32;101007.00;;;6.00
65569;BMP180;52211;50.154;8.682;2023-03-01T03:46:00;101016.00;;;6.00
65569;BMP180;52211;50.154;8.682;2023-03-01T03:48:38;101013.00;;;5.90
65569;BMP180;52211;50.154;8.682;2023-03-01T03:51:06;101014.00;;;5.90
65569;BMP180;52211;50.154;8.682;2023-03-01T03:53:36;101016.00;;;5.90
65569;BMP180;52211;50.154;8.682;2023-03-01T03:56:04;101012.00;;;5.90
65569;BMP180;52211;50.154;8.682;2023-03-01T03:58:34;101006.00;;;5.90
65569;BMP180;52211;50.154;8.682;2023-03-01T04:01:04;101010.00;;;5.90
65569;BMP180;52211;50.154;8.682;2023-03-01T04:03:32;101006.00;;;5.90
65569;BMP180;52211;50.154;8.682;2023-03-01T04:06:06;101015.00;;;5.90
65569;BMP180;52211;50.154;8.682;2023-03-01T04:08:33;101010.00;;;5.90
65569;BMP180;52211;50.154;8.682;2023-03-01T04:11:06;101009.00;;;5.90
65569;BMP180;52211;50.154;8.682;2023-03-01T04:13:57;101017.00;;;5.90
65569;BMP180;52211;50.154;8.682;2023-03-01T04:16:27;101014.00;;;5.80
65569;BMP180;52211;50.154;8.682;2023-03-01T04:18:57;101015.00;;;5.80
65569;BMP180;52211;50.154;8.682;2023-03-01T04:21:26;101015.00;;;5.80
65569;BMP180;52211;50.154;8.682;2023-03-01T04:23:53;101019.00;;;5.80
65569;BMP180;52211;50.154;8.682;2023-03-01T04:26:24;101023.00;;;5.70
65569;BMP180;52211;50.154;8.682;2023-03-01T04:28:54;101016.00;;;5.70
65569;BMP180;52211;50.154;8.682;2023-03-01T04:31:20;101013.00;;;5.70
65569;BMP180;52211;50.154;8.682;2023-03-01T04:33:54;101001.00;;;5.70
65569;BMP180;52211;50.154;8.682;2023-03-01T04:36:27;101005.00;;;5.70
65569;BMP180;52211;50.154;8.682;2023-03-01T04:38:58;101000.00;;;5.70
65569;BMP180;52211;50.154;8.682;2023-03-01T04:41:28;101001.00;;;5.70
65569;BMP180;52211;50.154;8.682;2023-03-01T04:43:54;101003.00;;;5.70
65569;BMP180;52211;50.154;8.682;2023-03-01T04:46:24;101004.00;;;5.70
65569;BMP180;52211;50.154;8.682;2023-03-01T04:48:53;101001.00;;;5.70
65569;BMP180;52211;50.154;8.682;2023-03-01T04:51:24;100990.00;;;5.60
65569;BMP180;52211;50.154;8.682;2023-03-01T04:53:54;100997.00;;;5.60
65569;BMP180;52211;50.154;8.682;2023-03-01T04:56:21;101005.00;;;5.60
65569;BMP180;52211;50.154;8.682;2023-03-01T04:58:53;101010.00;;;5.60
65569;BMP180;52211;50.154;8.682;2023-03-01T05:01:22;100999.00;;;5.60
65569;BMP180;52211;50.154;8.682;2023-03-01T05:03:59;101003.00;;;5.60
65569;BMP180;52211;50.154;8.682;2023-03-01T05:06:29;101002.00;;;5.60
65569;BMP180;52211;50.154;8.682;2023-03-01T05:09:02;100998.00;;;5.60
65569;BMP180;52211;50.154;8.682;2023-03-01T05:11:29;101004.00;;;5.70
65569;BMP180;52211;50.154;8.682;2023-03-01T05:14:00;101004.00;;;5.70
65569;BMP180;52211;50.154;8.682;2023-03-01T05:16:27;100995.00;;;5.70
65569;BMP180;52211;50.154;8.682;2023-03-01T05:18:58;100992.00;;;5.70
65569;BMP180;52211;50.154;8.682;2023-03-01T05:21:28;100991.00;;;5.60
65569;BMP180;52211;50.154;8.682;2023-03-01T05:23:55;100984.00;;;5.60
65569;BMP180;52211;50.154;8.682;2023-03-01T05:26:24;100991.00;;;5.60
65569;BMP180;52211;50.154;8.682;2023-03-01T05:28:55;101004.00;;;5.60
65569;BMP180;52211;50.154;8.682;2023-03-01T05:31:25;100997.00;;;5.50
65569;BMP180;52211;50.154;8.682;2023-03-01T05:33:51;100996.00;;;5.50
65569;BMP180;52211;50.154;8.682;2023-03-01T05:36:20;100995.00;;;5.50
65569;BMP180;52211;50.154;8.682;2023-03-01T05:38:49;100992.00;;;5.50
65569;BMP180;52211;50.154;8.682;2023-03-01T05:41:19;100988.00;;;5.50
65569;BMP180;52211;50.154;8.682;2023-03-01T05:43:45;100991.00;;;5.50
65569;BMP180;52211;50.154;8.682;2023-03-01T05:46:12;100979.00;;;5.50
65569;BMP180;52211;50.154;8.682;2023-03-01T05:48:49;100986.00;;;5.50
65569;BMP180;52211;50.154;8.682;2023-03-01T05:51:15;100985.00;;;5.50
65569;BMP180;52211;50.154;8.682;2023-03-01T05:53:47;100985.00;;;5.50
65569;BMP180;52211;50.154;8.682;2023-03-01T05:56:17;100985.00;;;5.50
65569;BMP180;52211;50.154;8.682;2023-03-01T05:58:44;100984.00;;;5.50
65569;BMP180;52211;50.154;8.682;2023-03-01T06:01:15;100985.00;;;5.50
65569;BMP180;52211;50.154;8.682;2023-03-01T06:03:42;100984.00;;;5.50
65569;BMP180;52211;50.154;8.682;2023-03-01T06:06:09;100985.00;;;5.50
65569;BMP180;52211;50.154;8.682;2023-03-01T06:08:36;100985.00;;;5.50
65569;BMP180;52211;50.154;8.682;2023-03-01T06:11:05;100985.00;;;5.50
65569;BMP180;52211;50.154;8.682;2023-03-01T06:13:36;100989.00;;;5.50
65569;BMP180;52211;50.154;8.682;2023-03-01T06:16:06;100986.00;;;5.40
65569;BMP180;52211;50.154;8.682;2023-03-01T06:18:37;100989.00;;;5.40
65569;BMP180;52211;50.154;8.682;2023-03-01T06:21:06;100989.00;;;5.40
65569;BMP180;52211;50.154;8.682;2023-03-01T06:23:34;100993.00;;;5.40
65569;BMP180;52211;50.154;8.682;2023-03-01T06:26:06;100990.00;;;5.40
65569;BMP180;52211;50.154;8.682;2023-03-01T06:28:35;100986.00;;;5.40
65569;BMP180;52211;50.154;8.682;2023-03-01T06:31:09;100985.00;;;5.40
65569;BMP180;52211;50.154;8.682;2023-03-01T06:33:38;100989.00;;;5.40
65569;BMP180;52211;50.154;8.682;2023-03-01T06:36:08;100985.00;;;5.50
65569;BMP180;52211;50.154;8.682;2023-03-01T06:38:37;100992.00;;;5.50
65569;BMP180;52211;50.154;8.682;2023-03-01T06:41:08;100980.00;;;5.50
65569;BMP180;52211;50.154;8.682;2023-03-01T06:43:38;100978.00;;;5.50
65569;BMP180;52211;50.154;8.682;2023-03-01T06:46:08;100972.00;;;5.50
65569;BMP180;52211;50.154;8.682;2023-03-01T06:48:40;100976.00;;;5.50
65569;BMP180;52211;50.154;8.682;2023-03-01T06:51:07;100970.00;;;5.60
65569;BMP180;52211;50.154;8.682;2023-03-01T06:53:34;100979.00;;;5.60
65569;BMP180;52211;50.154;8.682;2023-03-01T06:56:08;100970.00;;;5.60
65569;BMP180;52211;50.154;8.682;2023-03-01T06:58:37;100966.00;;;5.60
65569;BMP180;52211;50.154;8.682;2023-03-01T07:01:10;100970.00;;;5.60
65569;BMP180;52211;50.154;8.682;2023-03-01T07:03:40;100976.00;;;5.70
65569;BMP180;52211;50.154;8.682;2023-03-01T07:06:07;100983.00;;;5.70
65569;BMP180;52211;50.154;8.682;2023-03-01T07:08:41;100975.00;;;5.70
65569;BMP180;52211;50.154;8.682;2023-03-01T07:11:18;100989.00;;;5.80
65569;BMP180;52211;50.154;8.682;2023-03-01T07:13:45;100981.00;;;5.80
65569;BMP180;52211;50.154;8.682;2023-03-01T07:16:14;100985.00;;;5.90
65569;BMP180;52211;50.154;8.682;2023-03-01T07:18:44;100990.00;;;5.90
65569;BMP180;52211;50.154;8.682;2023-03-01T07:21:13;100990.00;;;5.90
65569;BMP180;52211;50.154;8.682;2023-03-01T07:23:43;100985.00;;;6.00
65569;BMP180;52211;50.154;8.682;2023-03-01T07:26:10;100978.00;;;6.00
65569;BMP180;52211;50.154;8.682;2023-03-01T07:28:37;100978.00;;;6.00
65569;BMP180;52211;50.154;8.682;2023-03-01T07:31:06;100966.00;;;6.00
65569;BMP180;52211;50.154;8.682;2023-03-01T07:33:43;100983.00;;;6.10
65569;BMP180;52211;50.154;8.682;2023-03-01T07:36:12;100971.00;;;6.10
65569;BMP180;52211;50.154;8.682;2023-03-01T07:38:41;100969.00;;;6.10
65569;BMP180;52211;50.154;8.682;2023-03-01T07:41:08;100981.00;;;6.10
65569;BMP180;52211;50.154;8.682;2023-03-01T07:43:42;100980.00;;;6.10
65569;BMP180;52211;50.154;8.682;2023-03-01T07:46:09;100968.00;;;6.10
65569;BMP180;52211;50.154;8.682;2023-03-01T07:48:36;100974.00;;;6.10
65569;BMP180;52211;50.154;8.682;2023-03-01T07:51:09;100967.00;;;6.10
65569;BMP180;52211;50.154;8.682;2023-03-01T07:53:36;100975.00;;;6.10
65569;BMP180;52211;50.154;8.682;2023-03-01T07:56:14;100976.00;;;6.10
65569;BMP180;52211;50.154;8.682;2023-03-01T07:58:45;100972.00;;;6.10
65569;BMP180;52211;50.154;8.682;2023-03-01T08:01:18;100967.00;;;6.10
65569;BMP180;52211;50.154;8.682;2023-03-01T08:03:48;100968.00;;;6.20
65569;BMP180;52211;50.154;8.682;2023-03-01T08:06:17;100964.00;;;6.20
65569;BMP180;52211;50.154;8.682;2023-03-01T08:08:44;100961.00;;;6.20
65569;BMP180;52211;50.154;8.682;2023-03-01T08:11:15;100968.00;;;6.20
65569;BMP180;52211;50.154;8.682;2023-03-01T08:13:43;100963.00;;;6.20
65569;BMP180;52211;50.154;8.682;2023-03-01T08:16:13;100968.00;;;6.20
65569;BMP180;52211;50.154;8.682;2023-03-01T08:18:43;100965.00;;;6.30
65569;BMP180;52211;50.154;8.682;2023-03-01T08:21:15;100960.00;;;6.30
65569;BMP180;52211;50.154;8.682;2023-03-01T08:23:43;100954.00;;;6.30
65569;BMP180;52211;50.154;8.682;2023-03-01T08:26:21;100958.00;;;6.30
65569;BMP180;52211;50.154;8.682;2023-03-01T08:28:50;100950.00;;;6.30
65569;BMP180;52211;50.154;8.682;2023-03-01T08:31:31;100950.00;;;6.40
65569;BMP180;52211;50.154;8.682;2023-03-01T08:34:04;100950.00;;;6.40
65569;BMP180;52211;50.154;8.682;2023-03-01T08:36:40;100949.00;;;6.40
65569;BMP180;52211;50.154;8.682;2023-03-01T08:39:10;100949.00;;;6.40
65569;BMP180;52211;50.154;8.682;2023-03-01T08:41:42;100947.00;;;6.50
65569;BMP180;52211;50.154;8.682;2023-03-01T08:44:13;100943.00;;;6.50
65569;BMP180;52211;50.154;8.682;2023-03-01T08:46:41;100945.00;;;6.60
65569;BMP180;52211;50.154;8.682;2023-03-01T08:49:14;100947.00;;;6.60
65569;BMP180;52211;50.154;8.682;2023-03-01T08:51:46;100937.00;;;6.60
65569;BMP180;52211;50.154;8.682;2023-03-01T08:54:20;100932.00;;;6.70
65569;BMP180;52211;50.154;8.682;2023-03-01T08:56:49;100927.00;;;6.80
65569;BMP180;52211;50.154;8.682;2023-03-01T08:59:23;100924.00;;;6.80
65569;BMP180;52211;50.154;8.682;2023-03-01T09:01:56;100929.00;;;6.80
65569;BMP180;52211;50.154;8.682;2023-03-01T09:04:26;100928.00;;;6.90
65569;BMP180;52211;50.154;8.682;2023-03-01T09:06:55;100929.00;;;7.00
65569;BMP180;52211;50.154;8.682;2023-03-01T09:09:26;100922.00;;;7.00
65569;BMP180;52211;50.154;8.682;2023-03-01T09:11:58;100917.00;;;7.10
65569;BMP180;52211;50.154;8.682;2023-03-01T09:14:27;100916.00;;;7.20
65569;BMP180;52211;50.154;8.682;2023-03-01T09:16:57;100920.00;;;7.20
65569;BMP180;52211;50.154;8.682;2023-03-01T09:19:24;100909.00;;;7.30
65569;BMP180;52211;50.154;8.682;2023-03-01T09:22:00;100912.00;;;7.30
65569;BMP180;52211;50.154;8.682;2023-03-01T09:24:27;100906.00;;;7.40
65569;BMP180;52211;50.154;8.682;2023-03-01T09:26:55;100889.00;;;7.40
65569;BMP180;52211;50.154;8.682;2023-03-01T09:29:25;100893.00;;;7.50
65569;BMP180;52211;50.154;8.682;2023-03-01T09:31:52;100895.00;;;7.50
65569;BMP180;52211;50.154;8.682;2023-03-01T09:34:23;100895.00;;;7.50
65569;BMP180;52211;50.154;8.682;2023-03-01T09:36:50;100889.00;;;7.60
65569;BMP180;52211;50.154;8.682;2023-03-01T09:39:18;100892.00;;;7.60
65569;BMP180;52211;50.154;8.682;2023-03-01T09:42:03;100895.00;;;7.70
65569;BMP180;52211;50.154;8.682;2023-03-01T09:44:51;100899.00;;;7.70
65569;BMP180;52211;50.154;8.682;2023-03-01T09:47:27;100896.00;;;7.80
65569;BMP180;52211;50.154;8.682;2023-03-01T09:50:18;100894.00;;;7.80
65569;BMP180;52211;50.154;8.682;2023-03-01T09:53:05;100895.00;;;7.90
65569;BMP180;52211;50.154;8.682;2023-03-01T09:55:55;100895.00;;;7.90
65569;BMP180;52211;50.154;8.682;2023-03-01T09:58:51;100880.00;;;8.00
65569;BMP180;52211;50.154;8.682;2023-03-01T10:01:46;100881.00;;;8.00
65569;BMP180;52211;50.154;8.682;2023-03-01T10:04:48;100877.00;;;8.10
65569;BMP180;52211;50.154;8.682;2023-03-01T10:10:21;100878.00;;;8.20
65569;BMP180;52211;50.154;8.682;2023-03-01T10:12:55;100871.00;;;8.30
65569;BMP180;52211;50.154;8.682;2023-03-01T10:15:36;100873.00;;;8.50
65569;BMP180;52211;50.154;8.682;2023-03-01T10:18:17;100869.00;;;8.60
65569;BMP180;52211;50.154;8.682;2023-03-01T10:21:02;100870.00;;;8.90
65569;BMP180;52211;50.154;8.682;2023-03-01T10:23:34;100866.00;;;9.30
65569;BMP180;52211;50.154;8.682;2023-03-01T10:26:38;100873.00;;;9.80
65569;BMP180;52211;50.154;8.682;2023-03-01T10:29:12;100870.00;;;10.40
65569;BMP180;52211;50.154;8.682;2023-03-01T10:31:50;100857.00;;;10.80
65569;BMP180;52211;50.154;8.682;2023-03-01T10:34:36;100854.00;;;11.30
65569;BMP180;52211;50.154;8.682;2023-03-01T10:37:19;100855.00;;;11.70
65569;BMP180;52211;50.154;8.682;2023-03-01T10:40:08;100857.00;;;12.20
65569;BMP180;52211;50.154;8.682;2023-03-01T10:42:48;100859.00;;;12.60
65569;BMP180;52211;50.154;8.682;2023-03-01T10:45:38;100854.00;;;13.00
65569;BMP180;52211;50.154;8.682;2023-03-01T10:50:49;100844.00;;;13.60
65569;BMP180;52211;50.154;8.682;2023-03-01T10:56:16;100828.00;;;14.30
65569;BMP180;52211;50.154;8.682;2023-03-01T10:59:03;100822.00;;;14.70
65569;BMP180;52211;50.154;8.682;2023-03-01T11:01:33;100827.00;;;15.00
65569;BMP180;52211;50.154;8.682;2023-03-01T11:06:39;100808.00;;;15.60
65569;BMP180;52211;50.154;8.682;2023-03-01T11:09:20;100807.00;;;16.00
65569;BMP180;52211;50.154;8.682;2023-03-01T11:12:00;100801.00;;;16.60
65569;BMP180;52211;50.154;8.682;2023-03-01T11:14:35;100798.00;;;17.10
65569;BMP180;52211;50.154;8.682;2023-03-01T11:17:29;100787.00;;;17.50
65569;BMP180;52211;50.154;8.682;2023-03-01T11:22:56;100776.00;;;17.90
65569;BMP180;52211;50.154;8.682;2023-03-01T11:25:40;100781.00;;;18.00
65569;BMP180;52211;50.154;8.682;2023-03-01T11:28:16;100773.00;;;18.10
65569;BMP180;52211;50.154;8.682;2023-03-01T11:31:05;100773.00;;;18.20
65569;BMP180;52211;50.154;8.682;2023-03-01T11:33:47;100764.00;;;18.40
65569;BMP180;52211;50.154;8.682;2023-03-01T11:36:40;100772.00;;;18.60
65569;BMP180;52211;50.154;8.682;2023-03-01T11:39:28;100760.00;;;18.80
65569;BMP180;52211;50.154;8.682;2023-03-01T11:42:15;100751.00;;;19.10
65569;BMP180;52211;50.154;8.682;2023-03-01T11:44:54;100752.00;;;19.30
65569;BMP180;52211;50.154;8.682;2023-03-01T11:50:48;100744.00;;;19.60
65569;BMP180;52211;50.154;8.682;2023-03-01T11:56:34;100738.00;;;20.00
65569;BMP180;52211;50.154;8.682;2023-03-01T11:59:45;100739.00;;;20.10
65569;BMP180;52211;50.154;8.682;2023-03-01T12:02:49;100729.00;;;20.30
65569;BMP180;52211;50.154;8.682;2023-03-01T12:05:54;100729.00;;;20.50
65569;BMP180;52211;50.154;8.682;2023-03-01T12:08:55;100718.00;;;20.50
65569;BMP180;52211;50.154;8.682;2023-03-01T12:18:28;100701.00;;;20.70
65569;BMP180;52211;50.154;8.682;2023-03-01T12:24:29;100697.00;;;20.80
65569;BMP180;52211;50.154;8.682;2023-03-01T12:49:02;100659.00;;;21.70
65569;BMP180;52211;50.154;8.682;2023-03-01T12:51:37;100656.00;;;21.70
65569;BMP180;52211;50.154;8.682;2023-03-01T12:54:29;100653.00;;;21.60
65569;BMP180;52211;50.154;8.682;2023-03-01T12:57:17;100651.00;;;21.60
65569;BMP180;52211;50.154;8.682;2023-03-01T13:00:10;100643.00;;;21.50
65569;BMP180;52211;50.154;8.682;2023-03-01T13:03:23;100638.00;;;21.40
65569;BMP180;52211;50.154;8.682;2023-03-01T13:06:29;100638.00;;;21.50
65569;BMP180;52211;50.154;8.682;2023-03-01T13:09:35;100637.00;;;21.60
65569;BMP180;52211;50.154;8.682;2023-03-01T13:12:45;100626.00;;;21.50
65569;BMP180;52211;50.154;8.682;2023-03-01T13:15:32;100638.00;;;21.50
65569;BMP180;52211;50.154;8.682;2023-03-01T13:20:50;100627.00;;;21.90
65569;BMP180;52211;50.154;8.682;2023-03-01T13:26:14;100626.00;;;22.00
65569;BMP180;52211;50.154;8.682;2023-03-01T13:33:47;100616.00;;;22.40
65569;BMP180;52211;50.154;8.682;2023-03-01T13:39:04;100601.00;;;22.80
65569;BMP180;52211;50.154;8.682;2023-03-01T13:44:34;100595.00;;;22.90
65569;BMP180;52211;50.154;8.682;2023-03-01T13:50:02;100581.00;;;23.10
65569;BMP180;52211;50.154;8.682;2023-03-01T13:52:50;100586.00;;;23.20
65569;BMP180;52211;50.154;8.682;2023-03-01T13:58:32;100574.00;;;23.60
65569;BMP180;52211;50.154;8.682;2023-03-01T14:01:05;100589.00;;;23.80
65569;BMP180;52211;50.154;8.682;2023-03-01T14:03:42;100581.00;;;23.80
65569;BMP180;52211;50.154;8.682;2023-03-01T14:06:21;100569.00;;;23.80
65569;BMP180;52211;50.154;8.682;2023-03-01T14:09:10;100567.00;;;23.50
65569;BMP180;52211;50.154;8.682;2023-03-01T14:12:02;100567.00;;;23.40
65569;BMP180;52211;50.154;8.682;2023-03-01T14:14:48;100566.00;;;23.50
65569;BMP180;52211;50.154;8.682;2023-03-01T14:20:39;100563.00;;;23.50
65569;BMP180;52211;50.154;8.682;2023-03-01T14:23:14;100568.00;;;23.50
65569;BMP180;52211;50.154;8.682;2023-03-01T14:25:57;100567.00;;;23.50
65569;BMP180;52211;50.154;8.682;2023-03-01T14:28:31;100566.00;;;23.50
65569;BMP180;52211;50.154;8.682;2023-03-01T14:31:38;100567.00;;;23.40
65569;BMP180;52211;50.154;8.682;2023-03-01T14:34:24;100567.00;;;23.30
65569;BMP180;52211;50.154;8.682;2023-03-01T14:36:53;100560.00;;;23.10
65569;BMP180;52211;50.154;8.682;2023-03-01T14:39:25;100569.00;;;22.90
65569;BMP180;52211;50.154;8.682;2023-03-01T14:41:54;100559.00;;;22.70
65569;BMP180;52211;50.154;8.682;2023-03-01T14:44:30;100559.00;;;22.40
65569;BMP180;52211;50.154;8.682;2023-03-01T14:47:05;100552.00;;;22.20
65569;BMP180;52211;50.154;8.682;2023-03-01T14:49:37;100558.00;;;22.00
65569;BMP180;52211;50.154;8.682;2023-03-01T14:52:07;100548.00;;;21.90
65569;BMP180;52211;50.154;8.682;2023-03-01T14:54:53;100552.00;;;21.70
65569;BMP180;52211;50.154;8.682;2023-03-01T14:57:24;100541.00;;;21.50
65569;BMP180;52211;50.154;8.682;2023-03-01T14:59:55;100529.00;;;21.30
65569;BMP180;52211;50.154;8.682;2023-03-01T15:02:28;100533.00;;;21.00
65569;BMP180;52211;50.154;8.682;2023-03-01T15:05:02;100534.00;;;20.50
65569;BMP180;52211;50.154;8.682;2023-03-01T15:07:41;100536.00;;;20.10
65569;BMP180;52211;50.154;8.682;2023-03-01T15:13:26;100533.00;;;19.20
65569;BMP180;52211;50.154;8.682;2023-03-01T15:16:11;100534.00;;;18.90
65569;BMP180;52211;50.154;8.682;2023-03-01T15:18:53;100531.00;;;18.60
65569;BMP180;52211;50.154;8.682;2023-03-01T15:21:25;100533.00;;;18.40
65569;BMP180;52211;50.154;8.682;2023-03-01T15:24:05;100532.00;;;18.30
65569;BMP180;52211;50.154;8.682;2023-03-01T15:26:43;100524.00;;;18.10
65569;BMP180;52211;50.154;8.682;2023-03-01T15:29:22;100528.00;;;17.90
65569;BMP180;52211;50.154;8.682;2023-03-01T15:32:05;100520.00;;;17.80
65569;BMP180;52211;50.154;8.682;2023-03-01T15:34:37;100527.00;;;17.70
65569;BMP180;52211;50.154;8.682;2023-03-01T15:40:24;100547.00;;;17.50
65569;BMP180;52211;50.154;8.682;2023-03-01T15:43:14;100545.00;;;17.30
65569;BMP180;52211;50.154;8.682;2023-03-01T15:46:00;100544.00;;;17.00
65569;BMP180;52211;50.154;8.682;2023-03-01T15:48:33;100549.00;;;16.90
65569;BMP180;52211;50.154;8.682;2023-03-01T15:51:02;100541.00;;;16.70
65569;BMP180;52211;50.154;8.682;2023-03-01T15:53:32;100541.00;;;16.50
65569;BMP180;52211;50.154;8.682;2023-03-01T15:56:02;100538.00;;;16.40
65569;BMP180;52211;50.154;8.682;2023-03-01T15:58:29;100546.00;;;16.20
65569;BMP180;52211;50.154;8.682;2023-03-01T16:00:56;100548.00;;;16.10
65569;BMP180;52211;50.154;8.682;2023-03-01T16:03:32;100549.00;;;16.00
65569;BMP180;52211;50.154;8.682;2023-03-01T16:06:01;100548.00;;;15.90
65569;BMP180;52211;50.154;8.682;2023-03-01T16:08:29;100546.00;;;15.70
65569;BMP180;52211;50.154;8.682;2023-03-01T16:10:56;100552.00;;;15.60
65569;BMP180;52211;50.154;8.682;2023-03-01T16:13:23;100553.00;;;15.50
65569;BMP180;52211;50.154;8.682;2023-03-01T16:15:58;100549.00;;;15.40